KAOO/AOO METAR and TAF weather

Enter ICAO airport designator
Station Type Date Time Source
KAOO METAR 2019/11/18 11:53 UTC NOAA

KAOO 181153Z AUTO 00000KT 4SM BR OVC003 01/M01 A2986 RMK AO2 SLP126 T00


Station Type Date Time Source
KAOO Decoded METAR 2019/11/18 11:53 UTC NOAA

ALTOONA-BLAIR COUNTY AIRPORT, PA, United States (KAOO) 40-18N 78-19W 455M
Nov 18, 2019 - 06:53 AM EST / 2019.11.18 1153 UTC
Wind: Calm:0
Visibility: 4 mile(s):0
Sky conditions: overcast
Weather: mist
Temperature: 33.1 F (0.6 C)
Dew Point: 30.9 F (-0.6 C)
Relative Humidity: 91%
Pressure (altimeter): 29.86 in. Hg (1011 hPa)
Pressure tendency: 0.02 inches (0.8 hPa) lower than three hours ago
ob: KAOO 181153Z AUTO 00000KT 4SM BR OVC003 01/M01 A2986 RMK AO2 SLP126 T00061006 10011 20006 56008
cycle: 12

Station Type Date Time Source
KAOO TAF 2019/11/18 09:36 UTC NOAA

TAF
AMD KAOO 180833Z 1809/1906 00000KT P6SM OVC008
TEMPO 1809/1813 1SM BR OVC003
FM182100 VRB02KT P6SM SCT025 BKN150

Example: see airport list